Depalpur Weather



Depalpur's Current Weather

Temprature 28.15o clear sky

clear sky

Rain: 0 %

Min Temprature28.15o
Max Temprature28.15o
Humidity63
Wind Speed2.72 m/h
Sun Rise05:36:25
Sun Set18:40:21
Current Time: 23-Aug-2019 05:19:02
Lat/Lon: 30.67, 73.65




Depalpur's Geo Location



Depalpur's Weather Forecast

Time Overall Temp Min Temp Max Temp Humidity Wind Speed Rain
23-Aug-2019 (Fri)
08:00:00 clear sky 33.010 33.007 33.010 42 2.73 m/h 0 %
11:00:00 clear sky 39.950 39.950 39.950 23 2.07 m/h 0 %
14:00:00 clear sky 42.430 42.430 42.431 18 2.9 m/h 0 %
17:00:00 clear sky 41.110 41.110 41.111 18 4.72 m/h 0 %
20:00:00 clear sky 35.550 35.550 35.550 26 3.03 m/h 0 %
23:00:00 clear sky 32.142 32.142 32.142 41 4.15 m/h 0 %
24-Aug-2019 (Sat)
02:00:00 clear sky 30.731 30.731 30.731 45 3.74 m/h 0 %
05:00:00 clear sky 29.655 29.655 29.655 45 3.24 m/h 0 %
08:00:00 clear sky 35.597 35.597 35.597 28 4.1 m/h 0 %
11:00:00 clear sky 40.669 40.669 40.669 20 3.7 m/h 0 %
14:00:00 clear sky 43.669 43.669 43.669 15 2.27 m/h 0 %
17:00:00 few clouds 41.623 41.623 41.623 17 4.72 m/h 0 %
20:00:00 scattered clouds 36.350 36.350 36.350 24 3.13 m/h 0 %
23:00:00 scattered clouds 33.069 33.069 33.069 30 2.58 m/h 0 %
25-Aug-2019 (Sun)
02:00:00 clear sky 31.131 31.131 31.131 50 3.39 m/h 0 %
05:00:00 clear sky 29.757 29.757 29.757 53 3.1 m/h 0 %
08:00:00 clear sky 35.514 35.514 35.514 27 3.39 m/h 0 %
11:00:00 clear sky 41.116 41.116 41.116 17 3.53 m/h 0 %
14:00:00 clear sky 44.950 44.950 44.950 13 1.69 m/h 0 %
17:00:00 clear sky 44.050 44.050 44.050 12 3.3 m/h 0 %
20:00:00 scattered clouds 36.881 36.881 36.881 30 7.87 m/h 0 %
23:00:00 broken clouds 33.011 33.011 33.011 50 7.65 m/h 0 %
26-Aug-2019 (Mon)
02:00:00 clear sky 29.865 29.865 29.865 65 6.71 m/h 0 %
05:00:00 clear sky 28.550 28.550 28.550 69 5 m/h 0 %
08:00:00 overcast clouds 31.867 31.867 31.867 56 4.14 m/h 0 %
11:00:00 overcast clouds 39.872 39.872 39.872 27 4.27 m/h 0 %
14:00:00 scattered clouds 43.184 43.184 43.184 19 4.06 m/h 0 %
17:00:00 broken clouds 42.420 42.420 42.420 19 3.78 m/h 0 %
20:00:00 clear sky 35.772 35.772 35.772 36 5.16 m/h 0 %
23:00:00 clear sky 32.914 32.914 32.914 48 3.49 m/h 0 %
27-Aug-2019 (Tue)
02:00:00 overcast clouds 30.916 30.916 30.916 54 3.13 m/h 0 %
05:00:00 overcast clouds 30.050 30.050 30.050 56 2.8 m/h 0 %
08:00:00 few clouds 34.635 34.635 34.635 45 3.78 m/h 0 %
11:00:00 broken clouds 39.336 39.336 39.336 31 2.53 m/h 0 %
14:00:00 overcast clouds 39.936 39.936 39.936 28 1.15 m/h 0 %
17:00:00 broken clouds 40.765 40.765 40.765 25 0.9 m/h 0 %
20:00:00 few clouds 34.850 34.850 34.850 39 3.11 m/h 0 %
23:00:00 clear sky 32.950 32.950 32.950 52 4.78 m/h 0 %
28-Aug-2019 (Wed)
02:00:00 few clouds 31.257 31.257 31.257 60 3.06 m/h 0 %
05:00:00 scattered clouds 30.572 30.572 30.572 62 2.43 m/h 0 %

Famous Cities (61)